CheckWX is a tool to help pilots better visualize weather data.  It is not intended as a substitute for an official pre-flight weather briefing.

07:46:11 UTC

KPVU METAR
Provo Municipal Airport
Provo, Utah, USA
Current

12 mins ago

KPVU 260734Z AUTO 00000KT 1/4SM FG OVC003 00/M01 A3023 RMK AO2 FZRANO
Observed
Jan-26 @ 07:34 UTC
Visibility
1/4 SM
Flight Rules
LIFR
Conditions
Fog
Cloud Levels
  • Overcast at 300' AGL
Temperature
C / 32°F
Dewpoint
-1°C / 30°F
Humidity
93%
Altimeter
30.23" Hg
Pressure
1023.72 hPa
Previous

34 mins ago

KPVU 260712Z AUTO 00000KT 1/2SM FG OVC003 00/M01 A3024 RMK AO2 FZRANO
Observed
Jan-26 @ 07:12 UTC
Visibility
1/2 SM
Flight Rules
LIFR
Conditions
Fog
Cloud Levels
  • Overcast at 300' AGL
Temperature
C / 32°F
Dewpoint
-1°C / 30°F
Humidity
93%
Altimeter
30.24" Hg
Pressure
1024.02 hPa
Previous

50 mins ago

KPVU 260656Z AUTO 00000KT 1/4SM FG OVC003 00/M01 A3024 RMK AO2 SLP256 T00001006 400281006 FZRANO
Observed
Jan-26 @ 06:56 UTC
Visibility
1/4 SM
Flight Rules
LIFR
Conditions
Fog
Cloud Levels
  • Overcast at 300' AGL
Temperature
C / 32°F
Dewpoint
-1°C / 30°F
Humidity
93%
Altimeter
30.24" Hg
Pressure
1024.02 hPa